<?xml version='1.0' encoding='UTF-8'?><gpx version="1.1" creator="JPX - https://github.com/jenetics/jpx" xmlns="http://www.topografix.com/GPX/1/1"><trk><trkseg><trkpt lat="44.13544" lon="9.9832245"><ele>101.0</ele><time>2026-05-01T08:28:36.982Z</time></trkpt><trkpt lat="44.1355039" lon="9.9832362"><ele>101.0</ele><time>2026-05-01T08:28:44.92Z</time></trkpt><trkpt lat="44.1355714" lon="9.9832214"><ele>101.0</ele><time>2026-05-01T08:28:50.028Z</time></trkpt><trkpt lat="44.1356385" lon="9.9831971"><ele>101.0</ele><time>2026-05-01T08:28:57.018Z</time></trkpt><trkpt lat="44.1357003" lon="9.983173"><ele>101.0</ele><time>2026-05-01T08:29:02.971Z</time></trkpt><trkpt lat="44.1357631" lon="9.9831797"><ele>101.0</ele><time>2026-05-01T08:29:12.023Z</time></trkpt><trkpt lat="44.1358349" lon="9.9831885"><ele>101.0</ele><time>2026-05-01T08:29:18.97Z</time></trkpt><trkpt lat="44.1358979" lon="9.983204"><ele>100.57142857142857</ele><time>2026-05-01T08:29:25.014Z</time></trkpt><trkpt lat="44.1359636" lon="9.9832202"><ele>100.14285714285714</ele><time>2026-05-01T08:29:32.034Z</time></trkpt><trkpt lat="44.1360261" lon="9.9832444"><ele>99.71428571428572</ele><time>2026-05-01T08:29:44.031Z</time></trkpt><trkpt lat="44.1360937" lon="9.9832225"><ele>99.28571428571428</ele><time>2026-05-01T08:29:50.948Z</time></trkpt><trkpt lat="44.1361573" lon="9.9832024"><ele>98.85714285714286</ele><time>2026-05-01T08:29:57.028Z</time></trkpt><trkpt lat="44.136232" lon="9.9831989"><ele>98.42857142857143</ele><time>2026-05-01T08:30:03.027Z</time></trkpt><trkpt lat="44.1363016" lon="9.983205"><ele>98.0</ele><time>2026-05-01T08:30:08.037Z</time></trkpt><trkpt lat="44.1363673" lon="9.983204"><ele>98.0</ele><time>2026-05-01T08:30:12.95Z</time></trkpt><trkpt lat="44.1364376" lon="9.983224"><ele>98.0</ele><time>2026-05-01T08:30:19.031Z</time></trkpt><trkpt lat="44.1365046" lon="9.9832473"><ele>98.0</ele><time>2026-05-01T08:30:26.032Z</time></trkpt><trkpt lat="44.1365742" lon="9.9832676"><ele>98.0</ele><time>2026-05-01T08:30:35.023Z</time></trkpt><trkpt lat="44.1366418" lon="9.9832703"><ele>98.0</ele><time>2026-05-01T08:30:41.029Z</time></trkpt><trkpt lat="44.1367102" lon="9.9832582"><ele>98.0</ele><time>2026-05-01T08:30:47.044Z</time></trkpt><trkpt lat="44.1367767" lon="9.9832777"><ele>98.0</ele><time>2026-05-01T08:30:55.026Z</time></trkpt><trkpt lat="44.1368345" lon="9.983315"><ele>100.14285714285714</ele><time>2026-05-01T08:31:01.016Z</time></trkpt><trkpt lat="44.1368952" lon="9.9833556"><ele>102.28571428571428</ele><time>2026-05-01T08:31:06.036Z</time></trkpt><trkpt lat="44.1369508" lon="9.9834169"><ele>104.42857142857143</ele><time>2026-05-01T08:31:12.019Z</time></trkpt><trkpt lat="44.1369983" lon="9.9834774"><ele>106.57142857142857</ele><time>2026-05-01T08:31:18.034Z</time></trkpt><trkpt lat="44.1370519" lon="9.9835286"><ele>108.71428571428571</ele><time>2026-05-01T08:31:25.023Z</time></trkpt><trkpt lat="44.1371209" lon="9.9835577"><ele>110.85714285714286</ele><time>2026-05-01T08:31:31.984Z</time></trkpt><trkpt lat="44.1371892" lon="9.9835488"><ele>113.0</ele><time>2026-05-01T08:31:38.024Z</time></trkpt><trkpt lat="44.137261" lon="9.9835512"><ele>113.0</ele><time>2026-05-01T08:31:46.026Z</time></trkpt><trkpt lat="44.1373334" lon="9.9835626"><ele>113.0</ele><time>2026-05-01T08:31:52.029Z</time></trkpt><trkpt lat="44.1374019" lon="9.9835491"><ele>113.0</ele><time>2026-05-01T08:31:59.019Z</time></trkpt><trkpt lat="44.1374736" lon="9.983536"><ele>113.0</ele><time>2026-05-01T08:32:06.024Z</time></trkpt><trkpt lat="44.1375447" lon="9.9835238"><ele>113.0</ele><time>2026-05-01T08:32:12.047Z</time></trkpt><trkpt lat="44.1376148" lon="9.9835075"><ele>113.0</ele><time>2026-05-01T08:32:19.019Z</time></trkpt><trkpt lat="44.1376798" lon="9.9835"><ele>113.0</ele><time>2026-05-01T08:32:26.023Z</time></trkpt><trkpt lat="44.1377483" lon="9.9834794"><ele>112.71428571428572</ele><time>2026-05-01T08:32:33.019Z</time></trkpt><trkpt lat="44.1378125" lon="9.9834757"><ele>112.42857142857142</ele><time>2026-05-01T08:32:39.024Z</time></trkpt><trkpt lat="44.1378793" lon="9.9835137"><ele>112.14285714285714</ele><time>2026-05-01T08:32:45.026Z</time></trkpt><trkpt lat="44.1379359" lon="9.98357"><ele>111.85714285714286</ele><time>2026-05-01T08:32:51.045Z</time></trkpt><trkpt lat="44.1379947" lon="9.9836271"><ele>111.57142857142858</ele><time>2026-05-01T08:32:57.031Z</time></trkpt><trkpt lat="44.1380486" lon="9.983689"><ele>111.28571428571428</ele><time>2026-05-01T08:33:04.036Z</time></trkpt><trkpt lat="44.1380987" lon="9.9837596"><ele>111.0</ele><time>2026-05-01T08:33:11.031Z</time></trkpt><trkpt lat="44.1381452" lon="9.9838296"><ele>111.0</ele><time>2026-05-01T08:33:18.029Z</time></trkpt><trkpt lat="44.1381888" lon="9.9839012"><ele>111.0</ele><time>2026-05-01T08:33:26.962Z</time></trkpt><trkpt lat="44.1382411" lon="9.9839661"><ele>111.0</ele><time>2026-05-01T08:33:33.96Z</time></trkpt><trkpt lat="44.138359" lon="9.9841017"><ele>111.0</ele><time>2026-05-01T08:34:15.974Z</time></trkpt><trkpt lat="44.1384234" lon="9.9841165"><ele>111.0</ele><time>2026-05-01T08:34:20.032Z</time></trkpt><trkpt lat="44.1384856" lon="9.9841627"><ele>111.0</ele><time>2026-05-01T08:34:26.005Z</time></trkpt><trkpt lat="44.1385504" lon="9.9841969"><ele>111.57142857142857</ele><time>2026-05-01T08:34:43.027Z</time></trkpt><trkpt lat="44.1386075" lon="9.9842459"><ele>112.14285714285714</ele><time>2026-05-01T08:34:49.045Z</time></trkpt><trkpt lat="44.1386779" lon="9.9842312"><ele>112.71428571428571</ele><time>2026-05-01T08:34:59.027Z</time></trkpt><trkpt lat="44.1387326" lon="9.9843006"><ele>113.28571428571428</ele><time>2026-05-01T08:35:18.03Z</time></trkpt><trkpt lat="44.1387978" lon="9.9843387"><ele>113.85714285714286</ele><time>2026-05-01T08:35:24.031Z</time></trkpt><trkpt lat="44.1388639" lon="9.9843635"><ele>114.42857142857142</ele><time>2026-05-01T08:35:31.025Z</time></trkpt><trkpt lat="44.1389249" lon="9.984412"><ele>114.99999999999999</ele><time>2026-05-01T08:35:37.032Z</time></trkpt><trkpt lat="44.1389838" lon="9.9844673"><ele>114.99999999999999</ele><time>2026-05-01T08:35:43.035Z</time></trkpt><trkpt lat="44.1390296" lon="9.9845286"><ele>115.0</ele><time>2026-05-01T08:35:50.037Z</time></trkpt><trkpt lat="44.1390865" lon="9.9845713"><ele>114.99999999999999</ele><time>2026-05-01T08:35:57.966Z</time></trkpt><trkpt lat="44.1391533" lon="9.9845967"><ele>114.99999999999999</ele><time>2026-05-01T08:36:04.037Z</time></trkpt><trkpt lat="44.1392235" lon="9.984606"><ele>115.0</ele><time>2026-05-01T08:36:11.046Z</time></trkpt><trkpt lat="44.1392821" lon="9.9846392"><ele>114.99999999999999</ele><time>2026-05-01T08:36:20.042Z</time></trkpt><trkpt lat="44.1393428" lon="9.9846807"><ele>114.99999999999999</ele><time>2026-05-01T08:36:29.052Z</time></trkpt><trkpt lat="44.139405" lon="9.9846949"><ele>112.66666666666667</ele><time>2026-05-01T08:36:37.033Z</time></trkpt><trkpt lat="44.1395055" lon="9.9847212"><ele>110.33333333333334</ele><time>2026-05-01T08:37:29.978Z</time></trkpt><trkpt lat="44.1395705" lon="9.9847645"><ele>108.0</ele><time>2026-05-01T08:37:38.033Z</time></trkpt><trkpt lat="44.1396363" lon="9.9847905"><ele>105.66666666666666</ele><time>2026-05-01T08:37:44.06Z</time></trkpt><trkpt lat="44.1397054" lon="9.9848268"><ele>103.33333333333333</ele><time>2026-05-01T08:37:51.03Z</time></trkpt><trkpt lat="44.1397685" lon="9.9848735"><ele>101.0</ele><time>2026-05-01T08:37:58.035Z</time></trkpt><trkpt lat="44.1398196" lon="9.9849456"><ele>102.28571428571428</ele><time>2026-05-01T08:38:05.031Z</time></trkpt><trkpt lat="44.139862" lon="9.9850217"><ele>103.57142857142857</ele><time>2026-05-01T08:38:12.044Z</time></trkpt><trkpt lat="44.1398992" lon="9.9850948"><ele>104.85714285714286</ele><time>2026-05-01T08:38:19.045Z</time></trkpt><trkpt lat="44.1399395" lon="9.9851631"><ele>106.14285714285714</ele><time>2026-05-01T08:38:24.927Z</time></trkpt><trkpt lat="44.1399866" lon="9.9852236"><ele>107.42857142857143</ele><time>2026-05-01T08:38:30.061Z</time></trkpt><trkpt lat="44.1400393" lon="9.9852843"><ele>108.71428571428571</ele><time>2026-05-01T08:38:37.022Z</time></trkpt><trkpt lat="44.1400901" lon="9.9853388"><ele>110.0</ele><time>2026-05-01T08:38:42.963Z</time></trkpt><trkpt lat="44.1401234" lon="9.9854135"><ele>109.99999999999999</ele><time>2026-05-01T08:38:50.034Z</time></trkpt><trkpt lat="44.1401427" lon="9.9854974"><ele>110.0</ele><time>2026-05-01T08:38:56.018Z</time></trkpt><trkpt lat="44.1401571" lon="9.9855892"><ele>110.0</ele><time>2026-05-01T08:39:01.945Z</time></trkpt><trkpt lat="44.1401866" lon="9.9856738"><ele>110.0</ele><time>2026-05-01T08:39:08.031Z</time></trkpt><trkpt lat="44.1401995" lon="9.9857688"><ele>110.0</ele><time>2026-05-01T08:39:13.013Z</time></trkpt><trkpt lat="44.1402098" lon="9.9858603"><ele>109.99999999999999</ele><time>2026-05-01T08:39:18.026Z</time></trkpt><trkpt lat="44.1402381" lon="9.9859525"><ele>110.0</ele><time>2026-05-01T08:39:24.016Z</time></trkpt><trkpt lat="44.1402542" lon="9.9860378"><ele>112.28571428571428</ele><time>2026-05-01T08:39:30.03Z</time></trkpt><trkpt lat="44.1402728" lon="9.986123"><ele>114.57142857142857</ele><time>2026-05-01T08:39:36.02Z</time></trkpt><trkpt lat="44.1402773" lon="9.9862126"><ele>116.85714285714286</ele><time>2026-05-01T08:39:42.016Z</time></trkpt><trkpt lat="44.1402905" lon="9.9863041"><ele>119.14285714285714</ele><time>2026-05-01T08:39:50.029Z</time></trkpt><trkpt lat="44.1403194" lon="9.9863862"><ele>121.42857142857143</ele><time>2026-05-01T08:39:58.008Z</time></trkpt><trkpt lat="44.140339" lon="9.9864758"><ele>123.71428571428571</ele><time>2026-05-01T08:40:06.949Z</time></trkpt><trkpt lat="44.1403793" lon="9.9865438"><ele>126.0</ele><time>2026-05-01T08:40:15.024Z</time></trkpt><trkpt lat="44.1404452" lon="9.9865741"><ele>126.0</ele><time>2026-05-01T08:40:20.046Z</time></trkpt><trkpt lat="44.1405112" lon="9.9866041"><ele>126.0</ele><time>2026-05-01T08:40:25.784Z</time></trkpt><trkpt lat="44.1405763" lon="9.9866356"><ele>126.0</ele><time>2026-05-01T08:40:32.03Z</time></trkpt><trkpt lat="44.1406386" lon="9.9866674"><ele>126.0</ele><time>2026-05-01T08:40:39.034Z</time></trkpt><trkpt lat="44.1407001" lon="9.9867031"><ele>126.0</ele><time>2026-05-01T08:40:45.031Z</time></trkpt><trkpt lat="44.1407674" lon="9.9867113"><ele>126.0</ele><time>2026-05-01T08:40:51.009Z</time></trkpt><trkpt lat="44.1408295" lon="9.986741"><ele>126.0</ele><time>2026-05-01T08:40:57.015Z</time></trkpt><trkpt lat="44.1408982" lon="9.98678"><ele>126.28571428571428</ele><time>2026-05-01T08:41:03.004Z</time></trkpt><trkpt lat="44.1409624" lon="9.9867868"><ele>126.57142857142857</ele><time>2026-05-01T08:41:08.01Z</time></trkpt><trkpt lat="44.1410317" lon="9.9868007"><ele>126.85714285714286</ele><time>2026-05-01T08:41:15.022Z</time></trkpt><trkpt lat="44.1410929" lon="9.9868223"><ele>127.14285714285714</ele><time>2026-05-01T08:41:22.032Z</time></trkpt><trkpt lat="44.1411652" lon="9.9868348"><ele>127.42857142857142</ele><time>2026-05-01T08:41:31.022Z</time></trkpt><trkpt lat="44.1412254" lon="9.9868834"><ele>127.71428571428571</ele><time>2026-05-01T08:41:37.021Z</time></trkpt><trkpt lat="44.141288" lon="9.9869237"><ele>128.0</ele><time>2026-05-01T08:41:44.034Z</time></trkpt><trkpt lat="44.141358" lon="9.986912"><ele>127.99999999999999</ele><time>2026-05-01T08:41:50.032Z</time></trkpt><trkpt lat="44.1414284" lon="9.9868921"><ele>128.0</ele><time>2026-05-01T08:41:56.009Z</time></trkpt><trkpt lat="44.1415012" lon="9.9868739"><ele>128.0</ele><time>2026-05-01T08:42:03.017Z</time></trkpt><trkpt lat="44.1416099" lon="9.9869656"><ele>128.0</ele><time>2026-05-01T08:42:15.016Z</time></trkpt><trkpt lat="44.1416661" lon="9.9870215"><ele>127.99999999999999</ele><time>2026-05-01T08:42:21.031Z</time></trkpt><trkpt lat="44.1417144" lon="9.9870793"><ele>128.0</ele><time>2026-05-01T08:42:27.022Z</time></trkpt><trkpt lat="44.1417673" lon="9.9871335"><ele>127.42857142857142</ele><time>2026-05-01T08:42:33.032Z</time></trkpt><trkpt lat="44.1418317" lon="9.9871717"><ele>126.85714285714285</ele><time>2026-05-01T08:42:40.016Z</time></trkpt><trkpt lat="44.1418862" lon="9.9872269"><ele>126.28571428571428</ele><time>2026-05-01T08:42:47.021Z</time></trkpt><trkpt lat="44.1419464" lon="9.9872725"><ele>125.71428571428572</ele><time>2026-05-01T08:42:54.018Z</time></trkpt><trkpt lat="44.1420063" lon="9.9873183"><ele>125.14285714285715</ele><time>2026-05-01T08:42:59.001Z</time></trkpt><trkpt lat="44.1420787" lon="9.9873654"><ele>124.57142857142858</ele><time>2026-05-01T08:43:04.049Z</time></trkpt><trkpt lat="44.1421334" lon="9.9874364"><ele>124.0</ele><time>2026-05-01T08:43:11.06Z</time></trkpt><trkpt lat="44.1421666" lon="9.9875289"><ele>126.28571428571429</ele><time>2026-05-01T08:43:17.95Z</time></trkpt><trkpt lat="44.1421866" lon="9.9876258"><ele>128.57142857142858</ele><time>2026-05-01T08:43:24.009Z</time></trkpt><trkpt lat="44.1421962" lon="9.9877212"><ele>130.85714285714286</ele><time>2026-05-01T08:43:29.03Z</time></trkpt><trkpt lat="44.1421915" lon="9.9878114"><ele>133.14285714285714</ele><time>2026-05-01T08:43:34.033Z</time></trkpt><trkpt lat="44.142176" lon="9.9879023"><ele>135.42857142857144</ele><time>2026-05-01T08:43:40.02Z</time></trkpt><trkpt lat="44.1421548" lon="9.9879982"><ele>137.71428571428572</ele><time>2026-05-01T08:43:47.03Z</time></trkpt><trkpt lat="44.1421297" lon="9.9880923"><ele>140.0</ele><time>2026-05-01T08:43:54.007Z</time></trkpt><trkpt lat="44.1421447" lon="9.9881856"><ele>140.0</ele><time>2026-05-01T08:44:01.047Z</time></trkpt><trkpt lat="44.1421663" lon="9.9882776"><ele>140.0</ele><time>2026-05-01T08:44:09.055Z</time></trkpt><trkpt lat="44.1421943" lon="9.9883677"><ele>140.0</ele><time>2026-05-01T08:44:17.036Z</time></trkpt><trkpt lat="44.1422407" lon="9.9884424"><ele>140.0</ele><time>2026-05-01T08:44:25.029Z</time></trkpt><trkpt lat="44.1422976" lon="9.9884902"><ele>140.0</ele><time>2026-05-01T08:44:33.028Z</time></trkpt><trkpt lat="44.1423629" lon="9.9885086"><ele>140.0</ele><time>2026-05-01T08:45:01.02Z</time></trkpt><trkpt lat="44.1424324" lon="9.9884754"><ele>140.0</ele><time>2026-05-01T08:45:15.036Z</time></trkpt><trkpt lat="44.1424953" lon="9.9884495"><ele>139.42857142857142</ele><time>2026-05-01T08:45:27.006Z</time></trkpt><trkpt lat="44.1425636" lon="9.9884454"><ele>138.85714285714286</ele><time>2026-05-01T08:45:33.016Z</time></trkpt><trkpt lat="44.1426378" lon="9.9884551"><ele>138.28571428571428</ele><time>2026-05-01T08:45:39.032Z</time></trkpt><trkpt lat="44.1427015" lon="9.9884394"><ele>137.71428571428572</ele><time>2026-05-01T08:45:43.022Z</time></trkpt><trkpt lat="44.1427683" lon="9.9884296"><ele>137.14285714285714</ele><time>2026-05-01T08:45:47.027Z</time></trkpt><trkpt lat="44.1428418" lon="9.9884151"><ele>136.57142857142856</ele><time>2026-05-01T08:45:52.032Z</time></trkpt><trkpt lat="44.1429111" lon="9.9884024"><ele>136.0</ele><time>2026-05-01T08:45:58.033Z</time></trkpt><trkpt lat="44.1429857" lon="9.9884052"><ele>135.99999999999997</ele><time>2026-05-01T08:46:04.035Z</time></trkpt><trkpt lat="44.1430549" lon="9.9884055"><ele>136.0</ele><time>2026-05-01T08:46:11.024Z</time></trkpt><trkpt lat="44.1431193" lon="9.9884048"><ele>136.0</ele><time>2026-05-01T08:46:20.024Z</time></trkpt><trkpt lat="44.1431806" lon="9.9884558"><ele>136.0</ele><time>2026-05-01T08:46:28.026Z</time></trkpt><trkpt lat="44.1432389" lon="9.9885045"><ele>136.0</ele><time>2026-05-01T08:46:35.034Z</time></trkpt><trkpt lat="44.1433125" lon="9.9885137"><ele>135.99999999999997</ele><time>2026-05-01T08:47:22.01Z</time></trkpt><trkpt lat="44.1433699" lon="9.9885522"><ele>136.0</ele><time>2026-05-01T08:47:28.039Z</time></trkpt><trkpt lat="44.1434271" lon="9.9886176"><ele>135.28571428571428</ele><time>2026-05-01T08:47:34.968Z</time></trkpt><trkpt lat="44.1434803" lon="9.9886743"><ele>134.57142857142856</ele><time>2026-05-01T08:47:43.047Z</time></trkpt><trkpt lat="44.1435247" lon="9.9887379"><ele>133.85714285714286</ele><time>2026-05-01T08:47:50.033Z</time></trkpt><trkpt lat="44.1435448" lon="9.9888327"><ele>133.14285714285714</ele><time>2026-05-01T08:47:56.039Z</time></trkpt><trkpt lat="44.1435405" lon="9.9889319"><ele>132.42857142857144</ele><time>2026-05-01T08:48:02.037Z</time></trkpt><trkpt lat="44.143526" lon="9.9890296"><ele>131.71428571428572</ele><time>2026-05-01T08:48:25.013Z</time></trkpt><trkpt lat="44.1435065" lon="9.989148"><ele>131.0</ele><time>2026-05-01T08:48:51.94Z</time></trkpt><trkpt lat="44.1434983" lon="9.9892449"><ele>133.28571428571428</ele><time>2026-05-01T08:48:58.061Z</time></trkpt><trkpt lat="44.1434722" lon="9.9893272"><ele>135.57142857142858</ele><time>2026-05-01T08:49:08.033Z</time></trkpt><trkpt lat="44.1434561" lon="9.989426"><ele>137.85714285714286</ele><time>2026-05-01T08:49:13.05Z</time></trkpt><trkpt lat="44.1434487" lon="9.98952"><ele>140.14285714285714</ele><time>2026-05-01T08:49:18.035Z</time></trkpt><trkpt lat="44.1434456" lon="9.9896129"><ele>142.42857142857144</ele><time>2026-05-01T08:49:24.036Z</time></trkpt><trkpt lat="44.1434745" lon="9.9896987"><ele>144.71428571428572</ele><time>2026-05-01T08:49:30.036Z</time></trkpt><trkpt lat="44.1435066" lon="9.9897871"><ele>147.0</ele><time>2026-05-01T08:49:37.046Z</time></trkpt><trkpt lat="44.1435579" lon="9.9898419"><ele>147.0</ele><time>2026-05-01T08:49:43.034Z</time></trkpt><trkpt lat="44.1435993" lon="9.9899111"><ele>147.0</ele><time>2026-05-01T08:49:49.044Z</time></trkpt><trkpt lat="44.1436398" lon="9.9899811"><ele>147.0</ele><time>2026-05-01T08:49:55.049Z</time></trkpt><trkpt lat="44.1436918" lon="9.9900499"><ele>147.0</ele><time>2026-05-01T08:50:01.037Z</time></trkpt><trkpt lat="44.1437549" lon="9.9900878"><ele>147.0</ele><time>2026-05-01T08:50:07.032Z</time></trkpt><trkpt lat="44.14382" lon="9.9901035"><ele>147.0</ele><time>2026-05-01T08:50:14.029Z</time></trkpt><trkpt lat="44.1438892" lon="9.9901186"><ele>147.0</ele><time>2026-05-01T08:50:21.03Z</time></trkpt><trkpt lat="44.1439584" lon="9.9901045"><ele>146.14285714285714</ele><time>2026-05-01T08:50:26.947Z</time></trkpt><trkpt lat="44.1440241" lon="9.9900682"><ele>145.28571428571428</ele><time>2026-05-01T08:50:33.053Z</time></trkpt><trkpt lat="44.1440905" lon="9.9900596"><ele>144.42857142857144</ele><time>2026-05-01T08:50:39.03Z</time></trkpt><trkpt lat="44.1441531" lon="9.990091"><ele>143.57142857142856</ele><time>2026-05-01T08:50:45.965Z</time></trkpt><trkpt lat="44.1442138" lon="9.9901167"><ele>142.71428571428572</ele><time>2026-05-01T08:50:53.051Z</time></trkpt><trkpt lat="44.1442803" lon="9.9901499"><ele>141.85714285714286</ele><time>2026-05-01T08:51:02.03Z</time></trkpt><trkpt lat="44.1443357" lon="9.9901973"><ele>141.0</ele><time>2026-05-01T08:51:10.985Z</time></trkpt><trkpt lat="44.1443777" lon="9.9902868"><ele>141.0</ele><time>2026-05-01T08:51:16.032Z</time></trkpt><trkpt lat="44.1444042" lon="9.9903843"><ele>141.0</ele><time>2026-05-01T08:51:22.034Z</time></trkpt><trkpt lat="44.1444239" lon="9.9904777"><ele>141.0</ele><time>2026-05-01T08:51:28.028Z</time></trkpt><trkpt lat="44.1444608" lon="9.9905664"><ele>141.0</ele><time>2026-05-01T08:51:34.022Z</time></trkpt><trkpt lat="44.1444891" lon="9.9906481"><ele>141.0</ele><time>2026-05-01T08:51:40.033Z</time></trkpt><trkpt lat="44.1445502" lon="9.9906947"><ele>141.0</ele><time>2026-05-01T08:51:47.962Z</time></trkpt><trkpt lat="44.1445761" lon="9.9908055"><ele>141.0</ele><time>2026-05-01T08:53:08.042Z</time></trkpt><trkpt lat="44.1446067" lon="9.9908838"><ele>142.28571428571428</ele><time>2026-05-01T08:53:12.034Z</time></trkpt><trkpt lat="44.1446755" lon="9.9908941"><ele>143.57142857142856</ele><time>2026-05-01T08:53:22.019Z</time></trkpt><trkpt lat="44.1447388" lon="9.9909341"><ele>144.85714285714283</ele><time>2026-05-01T08:53:30.02Z</time></trkpt><trkpt lat="44.1447736" lon="9.9910099"><ele>146.14285714285714</ele><time>2026-05-01T08:53:38.026Z</time></trkpt><trkpt lat="44.144805" lon="9.9910993"><ele>147.42857142857142</ele><time>2026-05-01T08:53:49.035Z</time></trkpt><trkpt lat="44.1448268" lon="9.991191"><ele>148.7142857142857</ele><time>2026-05-01T08:53:56.045Z</time></trkpt><trkpt lat="44.1448664" lon="9.9912773"><ele>150.0</ele><time>2026-05-01T08:54:05.057Z</time></trkpt><trkpt lat="44.144908" lon="9.9913545"><ele>149.99999999999997</ele><time>2026-05-01T08:54:12.032Z</time></trkpt><trkpt lat="44.1449357" lon="9.9914429"><ele>150.0</ele><time>2026-05-01T08:54:20.066Z</time></trkpt><trkpt lat="44.1448998" lon="9.9915175"><ele>150.0</ele><time>2026-05-01T08:54:42.017Z</time></trkpt><trkpt lat="44.1448381" lon="9.9915793"><ele>150.0</ele><time>2026-05-01T08:54:49.028Z</time></trkpt><trkpt lat="44.1447694" lon="9.9916244"><ele>150.0</ele><time>2026-05-01T08:54:53.059Z</time></trkpt><trkpt lat="44.1447014" lon="9.9916604"><ele>149.99999999999997</ele><time>2026-05-01T08:54:58.025Z</time></trkpt><trkpt lat="44.1446373" lon="9.9916782"><ele>150.0</ele><time>2026-05-01T08:55:05.024Z</time></trkpt><trkpt lat="44.1445722" lon="9.991703"><ele>152.14285714285714</ele><time>2026-05-01T08:55:11.051Z</time></trkpt><trkpt lat="44.1445091" lon="9.9917518"><ele>154.28571428571428</ele><time>2026-05-01T08:55:16.034Z</time></trkpt><trkpt lat="44.1444757" lon="9.991839"><ele>156.42857142857144</ele><time>2026-05-01T08:55:24.036Z</time></trkpt><trkpt lat="44.1444459" lon="9.9919268"><ele>158.57142857142856</ele><time>2026-05-01T08:55:31.038Z</time></trkpt><trkpt lat="44.1444103" lon="9.9920026"><ele>160.71428571428572</ele><time>2026-05-01T08:55:47.04Z</time></trkpt><trkpt lat="44.1444243" lon="9.9920886"><ele>162.85714285714286</ele><time>2026-05-01T08:55:52.04Z</time></trkpt><trkpt lat="44.1444402" lon="9.9921918"><ele>165.0</ele><time>2026-05-01T08:55:58.042Z</time></trkpt><trkpt lat="44.1444713" lon="9.9922848"><ele>165.00000000000003</ele><time>2026-05-01T08:56:04.047Z</time></trkpt><trkpt lat="44.1445093" lon="9.9923662"><ele>165.0</ele><time>2026-05-01T08:56:10.008Z</time></trkpt><trkpt lat="44.1445386" lon="9.9924618"><ele>165.0</ele><time>2026-05-01T08:56:15.933Z</time></trkpt><trkpt lat="44.1445593" lon="9.9925453"><ele>165.0</ele><time>2026-05-01T08:56:22.485Z</time></trkpt><trkpt lat="44.1445438" lon="9.9926451"><ele>165.0</ele><time>2026-05-01T08:56:28.01Z</time></trkpt><trkpt lat="44.1445047" lon="9.9927291"><ele>165.00000000000003</ele><time>2026-05-01T08:56:33.019Z</time></trkpt><trkpt lat="44.1444564" lon="9.9927909"><ele>165.0</ele><time>2026-05-01T08:56:38.013Z</time></trkpt><trkpt lat="44.1443964" lon="9.9928218"><ele>165.14285714285717</ele><time>2026-05-01T08:56:43.023Z</time></trkpt><trkpt lat="44.144336" lon="9.9928731"><ele>165.28571428571428</ele><time>2026-05-01T08:56:50.03Z</time></trkpt><trkpt lat="44.1443016" lon="9.9929527"><ele>165.42857142857144</ele><time>2026-05-01T08:56:56.019Z</time></trkpt><trkpt lat="44.1442573" lon="9.9930207"><ele>165.57142857142858</ele><time>2026-05-01T08:57:02.989Z</time></trkpt><trkpt lat="44.144214" lon="9.9931052"><ele>165.71428571428572</ele><time>2026-05-01T08:57:10.022Z</time></trkpt><trkpt lat="44.1441671" lon="9.993165"><ele>165.85714285714286</ele><time>2026-05-01T08:57:17.032Z</time></trkpt><trkpt lat="44.144112" lon="9.9932296"><ele>166.0</ele><time>2026-05-01T08:57:23.036Z</time></trkpt><trkpt lat="44.1440694" lon="9.9932986"><ele>167.57142857142856</ele><time>2026-05-01T08:57:28.027Z</time></trkpt><trkpt lat="44.1440264" lon="9.9933661"><ele>169.14285714285717</ele><time>2026-05-01T08:57:33.059Z</time></trkpt><trkpt lat="44.1439957" lon="9.9934498"><ele>170.71428571428572</ele><time>2026-05-01T08:57:38.907Z</time></trkpt><trkpt lat="44.1439651" lon="9.9935325"><ele>172.28571428571428</ele><time>2026-05-01T08:57:43.943Z</time></trkpt><trkpt lat="44.1439443" lon="9.9936227"><ele>173.85714285714283</ele><time>2026-05-01T08:57:50.042Z</time></trkpt><trkpt lat="44.1439228" lon="9.9937145"><ele>175.42857142857144</ele><time>2026-05-01T08:57:54.967Z</time></trkpt><trkpt lat="44.1438906" lon="9.9937953"><ele>177.0</ele><time>2026-05-01T08:58:00.036Z</time></trkpt><trkpt lat="44.1438748" lon="9.9938848"><ele>177.0</ele><time>2026-05-01T08:58:06.033Z</time></trkpt><trkpt lat="44.1438787" lon="9.9939884"><ele>177.0</ele><time>2026-05-01T08:58:12.031Z</time></trkpt><trkpt lat="44.1439144" lon="9.9940613"><ele>177.0</ele><time>2026-05-01T08:58:17.037Z</time></trkpt><trkpt lat="44.1439637" lon="9.994118"><ele>177.0</ele><time>2026-05-01T08:58:24.045Z</time></trkpt><trkpt lat="44.1440197" lon="9.9941613"><ele>177.0</ele><time>2026-05-01T08:58:30.034Z</time></trkpt><trkpt lat="44.1440932" lon="9.9941467"><ele>177.0</ele><time>2026-05-01T08:58:35.044Z</time></trkpt><trkpt lat="44.1441518" lon="9.9941064"><ele>177.0</ele><time>2026-05-01T08:58:40.036Z</time></trkpt><trkpt lat="44.1442195" lon="9.9940864"><ele>176.2857142857143</ele><time>2026-05-01T08:58:46.037Z</time></trkpt><trkpt lat="44.144283" lon="9.9940524"><ele>175.57142857142856</ele><time>2026-05-01T08:58:52.006Z</time></trkpt><trkpt lat="44.1443339" lon="9.9939821"><ele>174.85714285714286</ele><time>2026-05-01T08:58:58.032Z</time></trkpt><trkpt lat="44.1443902" lon="9.993939"><ele>174.14285714285717</ele><time>2026-05-01T08:59:46.026Z</time></trkpt><trkpt lat="44.1444603" lon="9.9939457"><ele>173.42857142857144</ele><time>2026-05-01T08:59:55.057Z</time></trkpt><trkpt lat="44.1445258" lon="9.9939491"><ele>172.71428571428572</ele><time>2026-05-01T09:00:01.035Z</time></trkpt><trkpt lat="44.1445875" lon="9.9939966"><ele>172.0</ele><time>2026-05-01T09:00:06.027Z</time></trkpt><trkpt lat="44.1446426" lon="9.9940494"><ele>172.00000000000003</ele><time>2026-05-01T09:00:11.034Z</time></trkpt><trkpt lat="44.144709" lon="9.9940908"><ele>172.0</ele><time>2026-05-01T09:00:17.03Z</time></trkpt><trkpt lat="44.1447657" lon="9.9941366"><ele>172.0</ele><time>2026-05-01T09:00:23.021Z</time></trkpt><trkpt lat="44.1448317" lon="9.9941068"><ele>172.0</ele><time>2026-05-01T09:00:30.016Z</time></trkpt><trkpt lat="44.1448914" lon="9.9940732"><ele>172.0</ele><time>2026-05-01T09:00:37.047Z</time></trkpt><trkpt lat="44.1449415" lon="9.9939936"><ele>172.00000000000003</ele><time>2026-05-01T09:00:42.042Z</time></trkpt><trkpt lat="44.1449817" lon="9.9939223"><ele>172.0</ele><time>2026-05-01T09:00:47.032Z</time></trkpt><trkpt lat="44.1450291" lon="9.9938544"><ele>170.71428571428572</ele><time>2026-05-01T09:00:53.005Z</time></trkpt><trkpt lat="44.1450689" lon="9.9937648"><ele>169.42857142857144</ele><time>2026-05-01T09:01:06.04Z</time></trkpt><trkpt lat="44.1451133" lon="9.9936961"><ele>168.14285714285717</ele><time>2026-05-01T09:01:10.965Z</time></trkpt><trkpt lat="44.1451539" lon="9.9936248"><ele>166.85714285714286</ele><time>2026-05-01T09:01:16.032Z</time></trkpt><trkpt lat="44.1451991" lon="9.9935625"><ele>165.57142857142856</ele><time>2026-05-01T09:01:21.037Z</time></trkpt><trkpt lat="44.1452242" lon="9.9934772"><ele>164.2857142857143</ele><time>2026-05-01T09:01:28.031Z</time></trkpt><trkpt lat="44.1452446" lon="9.9933862"><ele>163.0</ele><time>2026-05-01T09:01:37.071Z</time></trkpt><trkpt lat="44.1452759" lon="9.9933052"><ele>162.42857142857144</ele><time>2026-05-01T09:01:43.946Z</time></trkpt><trkpt lat="44.1453015" lon="9.9932095"><ele>161.85714285714283</ele><time>2026-05-01T09:01:49.87Z</time></trkpt><trkpt lat="44.1453593" lon="9.9931345"><ele>161.28571428571428</ele><time>2026-05-01T09:02:06.052Z</time></trkpt><trkpt lat="44.1453921" lon="9.9930368"><ele>160.71428571428572</ele><time>2026-05-01T09:02:10.042Z</time></trkpt><trkpt lat="44.1454314" lon="9.9929538"><ele>160.14285714285717</ele><time>2026-05-01T09:02:15.06Z</time></trkpt><trkpt lat="44.1454721" lon="9.9928811"><ele>159.57142857142856</ele><time>2026-05-01T09:02:20.031Z</time></trkpt><trkpt lat="44.1455174" lon="9.9928159"><ele>159.0</ele><time>2026-05-01T09:02:25.022Z</time></trkpt><trkpt lat="44.1455739" lon="9.9927614"><ele>159.0</ele><time>2026-05-01T09:02:31.031Z</time></trkpt><trkpt lat="44.1456132" lon="9.9926818"><ele>159.0</ele><time>2026-05-01T09:02:37.036Z</time></trkpt><trkpt lat="44.1456678" lon="9.9926245"><ele>159.0</ele><time>2026-05-01T09:02:43.02Z</time></trkpt><trkpt lat="44.1457226" lon="9.9925578"><ele>159.0</ele><time>2026-05-01T09:02:50.705Z</time></trkpt><trkpt lat="44.1457492" lon="9.9924708"><ele>159.0</ele><time>2026-05-01T09:02:56.884Z</time></trkpt><trkpt lat="44.145716" lon="9.9923898"><ele>159.0</ele><time>2026-05-01T09:03:01.908Z</time></trkpt><trkpt lat="44.1456424" lon="9.9923945"><ele>159.0</ele><time>2026-05-01T09:03:10.033Z</time></trkpt><trkpt lat="44.1456067" lon="9.9923139"><ele>158.7142857142857</ele><time>2026-05-01T09:03:15.028Z</time></trkpt><trkpt lat="44.1456599" lon="9.9922542"><ele>158.42857142857144</ele><time>2026-05-01T09:03:20.026Z</time></trkpt><trkpt lat="44.1457154" lon="9.9922059"><ele>158.14285714285714</ele><time>2026-05-01T09:03:26.011Z</time></trkpt><trkpt lat="44.1457683" lon="9.992153"><ele>157.85714285714283</ele><time>2026-05-01T09:03:32.024Z</time></trkpt><trkpt lat="44.1457524" lon="9.9920555"><ele>157.57142857142856</ele><time>2026-05-01T09:03:47.021Z</time></trkpt><trkpt lat="44.1457015" lon="9.9919835"><ele>157.28571428571428</ele><time>2026-05-01T09:03:55.033Z</time></trkpt><trkpt lat="44.1456342" lon="9.9919601"><ele>157.0</ele><time>2026-05-01T09:04:05.967Z</time></trkpt><trkpt lat="44.1455843" lon="9.9919033"><ele>156.99999999999997</ele><time>2026-05-01T09:04:16.03Z</time></trkpt><trkpt lat="44.1455273" lon="9.991848"><ele>157.0</ele><time>2026-05-01T09:04:23.038Z</time></trkpt><trkpt lat="44.1454783" lon="9.9917815"><ele>157.0</ele><time>2026-05-01T09:04:47.025Z</time></trkpt><trkpt lat="44.1454502" lon="9.991683"><ele>157.0</ele><time>2026-05-01T09:04:53.031Z</time></trkpt><trkpt lat="44.1454466" lon="9.9915902"><ele>157.0</ele><time>2026-05-01T09:04:57.034Z</time></trkpt><trkpt lat="44.1454466" lon="9.9914871"><ele>156.99999999999997</ele><time>2026-05-01T09:05:03.038Z</time></trkpt><trkpt lat="44.1455362" lon="9.9914464"><ele>157.0</ele><time>2026-05-01T09:06:51.987Z</time></trkpt><trkpt lat="44.1455973" lon="9.9914059"><ele>156.7142857142857</ele><time>2026-05-01T09:07:55.028Z</time></trkpt><trkpt lat="44.1456637" lon="9.9914567"><ele>156.42857142857142</ele><time>2026-05-01T09:08:55.041Z</time></trkpt><trkpt lat="44.145718" lon="9.991508"><ele>156.14285714285714</ele><time>2026-05-01T09:09:00.069Z</time></trkpt><trkpt lat="44.1457746" lon="9.9915638"><ele>155.85714285714283</ele><time>2026-05-01T09:09:06.036Z</time></trkpt><trkpt lat="44.1458296" lon="9.9916223"><ele>155.57142857142856</ele><time>2026-05-01T09:09:14.047Z</time></trkpt><trkpt lat="44.1458878" lon="9.9916711"><ele>155.28571428571428</ele><time>2026-05-01T09:09:22.016Z</time></trkpt><trkpt lat="44.1459473" lon="9.9917156"><ele>155.0</ele><time>2026-05-01T09:09:29.012Z</time></trkpt><trkpt lat="44.1460097" lon="9.9916844"><ele>155.0</ele><time>2026-05-01T09:09:38.024Z</time></trkpt><trkpt lat="44.146102" lon="9.9916293"><ele>155.0</ele><time>2026-05-01T09:10:10.025Z</time></trkpt><trkpt lat="44.1461791" lon="9.9915872"><ele>155.0</ele><time>2026-05-01T09:10:30.018Z</time></trkpt><trkpt lat="44.146243" lon="9.9915768"><ele>155.0</ele><time>2026-05-01T09:10:35.967Z</time></trkpt><trkpt lat="44.1463084" lon="9.991559"><ele>155.0</ele><time>2026-05-01T09:10:42.046Z</time></trkpt><trkpt lat="44.1463936" lon="9.9915154"><ele>155.0</ele><time>2026-05-01T09:11:15.053Z</time></trkpt><trkpt lat="44.1464484" lon="9.9914697"><ele>155.0</ele><time>2026-05-01T09:11:22.042Z</time></trkpt><trkpt lat="44.1465108" lon="9.9914249"><ele>155.0</ele><time>2026-05-01T09:11:29.968Z</time></trkpt><trkpt lat="44.1465735" lon="9.991417"><ele>155.0</ele><time>2026-05-01T09:11:37.022Z</time></trkpt><trkpt lat="44.1466386" lon="9.9913918"><ele>155.0</ele><time>2026-05-01T09:11:44.058Z</time></trkpt><trkpt lat="44.1466851" lon="9.9913271"><ele>155.0</ele><time>2026-05-01T09:11:54.036Z</time></trkpt><trkpt lat="44.1467448" lon="9.9912713"><ele>155.0</ele><time>2026-05-01T09:12:01.042Z</time></trkpt><trkpt lat="44.146802" lon="9.9912291"><ele>155.0</ele><time>2026-05-01T09:12:13.028Z</time></trkpt><trkpt lat="44.1468563" lon="9.9911843"><ele>157.57142857142858</ele><time>2026-05-01T09:12:20.969Z</time></trkpt><trkpt lat="44.1469165" lon="9.9911437"><ele>160.14285714285714</ele><time>2026-05-01T09:12:28.011Z</time></trkpt><trkpt lat="44.1469716" lon="9.9911002"><ele>162.71428571428572</ele><time>2026-05-01T09:12:37.027Z</time></trkpt><trkpt lat="44.1469574" lon="9.9910143"><ele>165.28571428571428</ele><time>2026-05-01T09:12:52.024Z</time></trkpt><trkpt lat="44.1469891" lon="9.9909296"><ele>167.85714285714286</ele><time>2026-05-01T09:13:02.015Z</time></trkpt><trkpt lat="44.1470149" lon="9.9908392"><ele>170.42857142857142</ele><time>2026-05-01T09:13:13.038Z</time></trkpt><trkpt lat="44.1470089" lon="9.9907384"><ele>173.0</ele><time>2026-05-01T09:13:19.038Z</time></trkpt><trkpt lat="44.1470122" lon="9.9906459"><ele>174.42857142857142</ele><time>2026-05-01T09:13:25.044Z</time></trkpt><trkpt lat="44.1470125" lon="9.9905472"><ele>175.85714285714286</ele><time>2026-05-01T09:13:32.052Z</time></trkpt><trkpt lat="44.1470284" lon="9.9904596"><ele>177.28571428571428</ele><time>2026-05-01T09:13:39.042Z</time></trkpt><trkpt lat="44.1470593" lon="9.9903673"><ele>178.71428571428572</ele><time>2026-05-01T09:13:45.993Z</time></trkpt><trkpt lat="44.1470824" lon="9.9902852"><ele>180.14285714285717</ele><time>2026-05-01T09:13:52.034Z</time></trkpt><trkpt lat="44.1470979" lon="9.9901903"><ele>181.57142857142858</ele><time>2026-05-01T09:13:58.872Z</time></trkpt><trkpt lat="44.1471088" lon="9.9900925"><ele>183.0</ele><time>2026-05-01T09:14:05.931Z</time></trkpt><trkpt lat="44.1471337" lon="9.9900018"><ele>183.57142857142858</ele><time>2026-05-01T09:14:12.028Z</time></trkpt><trkpt lat="44.1471555" lon="9.9899155"><ele>184.14285714285717</ele><time>2026-05-01T09:14:17.035Z</time></trkpt><trkpt lat="44.1471746" lon="9.9898203"><ele>184.71428571428572</ele><time>2026-05-01T09:14:23.029Z</time></trkpt><trkpt lat="44.1471816" lon="9.9897208"><ele>185.28571428571428</ele><time>2026-05-01T09:14:30.049Z</time></trkpt><trkpt lat="44.1471956" lon="9.9896296"><ele>185.85714285714286</ele><time>2026-05-01T09:14:36.033Z</time></trkpt><trkpt lat="44.1472316" lon="9.9895503"><ele>186.42857142857142</ele><time>2026-05-01T09:14:42.041Z</time></trkpt><trkpt lat="44.1472885" lon="9.9895067"><ele>187.0</ele><time>2026-05-01T09:15:55.033Z</time></trkpt><trkpt lat="44.147338" lon="9.9894337"><ele>189.0</ele><time>2026-05-01T09:16:01.033Z</time></trkpt><trkpt lat="44.1473861" lon="9.9893723"><ele>191.0</ele><time>2026-05-01T09:16:07.037Z</time></trkpt><trkpt lat="44.147448" lon="9.9893475"><ele>193.0</ele><time>2026-05-01T09:16:12.947Z</time></trkpt><trkpt lat="44.1475138" lon="9.9893039"><ele>195.0</ele><time>2026-05-01T09:16:20.034Z</time></trkpt><trkpt lat="44.1475686" lon="9.9892558"><ele>197.0</ele><time>2026-05-01T09:16:26.04Z</time></trkpt><trkpt lat="44.1476224" lon="9.9892089"><ele>199.0</ele><time>2026-05-01T09:16:32.033Z</time></trkpt><trkpt lat="44.1476848" lon="9.9891788"><ele>201.0</ele><time>2026-05-01T09:16:37.97Z</time></trkpt><trkpt lat="44.1477574" lon="9.9891581"><ele>201.42857142857142</ele><time>2026-05-01T09:16:44.043Z</time></trkpt><trkpt lat="44.1478106" lon="9.9891046"><ele>201.85714285714286</ele><time>2026-05-01T09:16:50.036Z</time></trkpt><trkpt lat="44.1478477" lon="9.9890307"><ele>202.28571428571428</ele><time>2026-05-01T09:16:55.045Z</time></trkpt><trkpt lat="44.1478458" lon="9.9889346"><ele>202.71428571428572</ele><time>2026-05-01T09:17:01.038Z</time></trkpt><trkpt lat="44.1478398" lon="9.9888456"><ele>203.14285714285717</ele><time>2026-05-01T09:17:08.028Z</time></trkpt><trkpt lat="44.1478603" lon="9.988756"><ele>203.57142857142858</ele><time>2026-05-01T09:17:15.054Z</time></trkpt><trkpt lat="44.1479047" lon="9.9886893"><ele>204.0</ele><time>2026-05-01T09:17:23.05Z</time></trkpt><trkpt lat="44.147955" lon="9.9886347"><ele>204.0</ele><time>2026-05-01T09:17:29.043Z</time></trkpt><trkpt lat="44.1480085" lon="9.9885666"><ele>204.0</ele><time>2026-05-01T09:17:36.019Z</time></trkpt><trkpt lat="44.1480601" lon="9.9884975"><ele>204.0</ele><time>2026-05-01T09:18:17.021Z</time></trkpt><trkpt lat="44.1481275" lon="9.9885083"><ele>204.0</ele><time>2026-05-01T09:18:36.025Z</time></trkpt><trkpt lat="44.1481882" lon="9.9884801"><ele>204.0</ele><time>2026-05-01T09:18:44.019Z</time></trkpt><trkpt lat="44.1482487" lon="9.9885139"><ele>204.0</ele><time>2026-05-01T09:19:09.039Z</time></trkpt><trkpt lat="44.1483144" lon="9.9884915"><ele>204.0</ele><time>2026-05-01T09:19:17.033Z</time></trkpt><trkpt lat="44.1483814" lon="9.9883864"><ele>206.71428571428572</ele><time>2026-05-01T09:20:40.03Z</time></trkpt><trkpt lat="44.1484268" lon="9.9883186"><ele>209.42857142857144</ele><time>2026-05-01T09:21:22.039Z</time></trkpt><trkpt lat="44.1484961" lon="9.9882354"><ele>212.14285714285714</ele><time>2026-05-01T09:21:49.049Z</time></trkpt><trkpt lat="44.1485456" lon="9.9881809"><ele>214.85714285714286</ele><time>2026-05-01T09:21:54.031Z</time></trkpt><trkpt lat="44.1485905" lon="9.9881181"><ele>217.57142857142856</ele><time>2026-05-01T09:22:00.045Z</time></trkpt><trkpt lat="44.1486572" lon="9.9880871"><ele>220.28571428571428</ele><time>2026-05-01T09:22:11.031Z</time></trkpt><trkpt lat="44.1487267" lon="9.9880697"><ele>223.0</ele><time>2026-05-01T09:22:19.042Z</time></trkpt><trkpt lat="44.1487982" lon="9.98805"><ele>223.0</ele><time>2026-05-01T09:22:25.037Z</time></trkpt><trkpt lat="44.1488635" lon="9.988031"><ele>223.0</ele><time>2026-05-01T09:22:30.034Z</time></trkpt><trkpt lat="44.1489264" lon="9.9880164"><ele>223.0</ele><time>2026-05-01T09:22:35.024Z</time></trkpt><trkpt lat="44.1489939" lon="9.9880025"><ele>223.0</ele><time>2026-05-01T09:22:40.038Z</time></trkpt><trkpt lat="44.1490525" lon="9.9879608"><ele>223.0</ele><time>2026-05-01T09:22:45.884Z</time></trkpt><trkpt lat="44.1490524" lon="9.9878638"><ele>223.0</ele><time>2026-05-01T09:22:53.035Z</time></trkpt><trkpt lat="44.1490147" lon="9.9877926"><ele>223.0</ele><time>2026-05-01T09:23:03.051Z</time></trkpt><trkpt lat="44.1490369" lon="9.9876989"><ele>223.0</ele><time>2026-05-01T09:23:31.028Z</time></trkpt><trkpt lat="44.1490049" lon="9.9877764"><ele>223.0</ele><time>2026-05-01T09:24:01.022Z</time></trkpt><trkpt lat="44.1490412" lon="9.9878611"><ele>223.0</ele><time>2026-05-01T09:24:09.039Z</time></trkpt><trkpt lat="44.1490729" lon="9.9879429"><ele>223.0</ele><time>2026-05-01T09:24:15.022Z</time></trkpt><trkpt lat="44.1490991" lon="9.9880231"><ele>223.0</ele><time>2026-05-01T09:24:26.035Z</time></trkpt><trkpt lat="44.1490676" lon="9.988107"><ele>223.0</ele><time>2026-05-01T09:24:35.08Z</time></trkpt><trkpt lat="44.1490697" lon="9.9882028"><ele>223.0</ele><time>2026-05-01T09:24:43.052Z</time></trkpt><trkpt lat="44.1490922" lon="9.9882875"><ele>223.99999999999997</ele><time>2026-05-01T09:24:52.045Z</time></trkpt><trkpt lat="44.1491576" lon="9.9883123"><ele>225.0</ele><time>2026-05-01T09:25:26.064Z</time></trkpt><trkpt lat="44.1492286" lon="9.9882932"><ele>226.0</ele><time>2026-05-01T09:25:33.062Z</time></trkpt><trkpt lat="44.1492932" lon="9.9882873"><ele>227.0</ele><time>2026-05-01T09:25:40.05Z</time></trkpt><trkpt lat="44.1493529" lon="9.9883285"><ele>227.99999999999997</ele><time>2026-05-01T09:25:55.051Z</time></trkpt><trkpt lat="44.1494086" lon="9.9883718"><ele>229.0</ele><time>2026-05-01T09:26:00.044Z</time></trkpt><trkpt lat="44.1495238" lon="9.9882831"><ele>230.28571428571428</ele><time>2026-05-01T09:26:58.041Z</time></trkpt><trkpt lat="44.1495481" lon="9.9882003"><ele>231.57142857142858</ele><time>2026-05-01T09:27:03.027Z</time></trkpt><trkpt lat="44.1496022" lon="9.9881455"><ele>232.85714285714286</ele><time>2026-05-01T09:27:10.031Z</time></trkpt><trkpt lat="44.1496567" lon="9.9880957"><ele>234.14285714285714</ele><time>2026-05-01T09:27:39.045Z</time></trkpt><trkpt lat="44.1497038" lon="9.9880374"><ele>235.42857142857144</ele><time>2026-05-01T09:27:58.929Z</time></trkpt><trkpt lat="44.1497483" lon="9.9879709"><ele>236.71428571428572</ele><time>2026-05-01T09:28:10.024Z</time></trkpt><trkpt lat="44.1498429" lon="9.9879163"><ele>238.0</ele><time>2026-05-01T09:29:12.019Z</time></trkpt><trkpt lat="44.1498941" lon="9.9878638"><ele>239.85714285714286</ele><time>2026-05-01T09:29:18.032Z</time></trkpt><trkpt lat="44.149939" lon="9.9877981"><ele>241.71428571428572</ele><time>2026-05-01T09:29:24.038Z</time></trkpt><trkpt lat="44.149994" lon="9.9877432"><ele>243.57142857142856</ele><time>2026-05-01T09:29:31.032Z</time></trkpt><trkpt lat="44.1500781" lon="9.9877119"><ele>245.42857142857142</ele><time>2026-05-01T09:29:49.04Z</time></trkpt><trkpt lat="44.1501375" lon="9.9876723"><ele>247.28571428571428</ele><time>2026-05-01T09:29:56.056Z</time></trkpt><trkpt lat="44.1501967" lon="9.9877027"><ele>249.1428571428571</ele><time>2026-05-01T09:30:19.054Z</time></trkpt><trkpt lat="44.1502386" lon="9.9877728"><ele>250.99999999999997</ele><time>2026-05-01T09:30:24.001Z</time></trkpt><trkpt lat="44.1502843" lon="9.9878429"><ele>250.99999999999997</ele><time>2026-05-01T09:30:31.037Z</time></trkpt><trkpt lat="44.1503267" lon="9.9879176"><ele>251.0</ele><time>2026-05-01T09:30:42.063Z</time></trkpt><trkpt lat="44.1503921" lon="9.9879205"><ele>250.99999999999997</ele><time>2026-05-01T09:30:57.981Z</time></trkpt><trkpt lat="44.1504435" lon="9.9878632"><ele>250.99999999999997</ele><time>2026-05-01T09:31:07.04Z</time></trkpt><trkpt lat="44.1505118" lon="9.9878759"><ele>251.0</ele><time>2026-05-01T09:31:13.058Z</time></trkpt><trkpt lat="44.150574" lon="9.9878985"><ele>250.99999999999997</ele><time>2026-05-01T09:31:20.034Z</time></trkpt><trkpt lat="44.1506387" lon="9.987912"><ele>250.99999999999997</ele><time>2026-05-01T09:31:29.03Z</time></trkpt><trkpt lat="44.150707" lon="9.9878894"><ele>252.71428571428567</ele><time>2026-05-01T09:31:43.034Z</time></trkpt><trkpt lat="44.1507681" lon="9.987866"><ele>254.42857142857142</ele><time>2026-05-01T09:31:50.037Z</time></trkpt><trkpt lat="44.1508165" lon="9.9878051"><ele>256.1428571428571</ele><time>2026-05-01T09:31:57.057Z</time></trkpt><trkpt lat="44.1508724" lon="9.9877541"><ele>257.85714285714283</ele><time>2026-05-01T09:32:04.023Z</time></trkpt><trkpt lat="44.1509288" lon="9.9876915"><ele>259.57142857142856</ele><time>2026-05-01T09:32:14.068Z</time></trkpt><trkpt lat="44.1509614" lon="9.987616"><ele>261.2857142857143</ele><time>2026-05-01T09:32:21.042Z</time></trkpt><trkpt lat="44.1509981" lon="9.9875435"><ele>263.0</ele><time>2026-05-01T09:32:28.033Z</time></trkpt><trkpt lat="44.1510533" lon="9.9874857"><ele>264.7142857142857</ele><time>2026-05-01T09:32:36.029Z</time></trkpt><trkpt lat="44.1511076" lon="9.9874274"><ele>266.4285714285714</ele><time>2026-05-01T09:32:44.979Z</time></trkpt><trkpt lat="44.1511508" lon="9.987353"><ele>268.1428571428571</ele><time>2026-05-01T09:32:52.027Z</time></trkpt><trkpt lat="44.1512054" lon="9.9872906"><ele>269.85714285714283</ele><time>2026-05-01T09:33:18.014Z</time></trkpt><trkpt lat="44.1511447" lon="9.9872335"><ele>271.57142857142856</ele><time>2026-05-01T09:33:26.017Z</time></trkpt><trkpt lat="44.1510816" lon="9.9871903"><ele>273.2857142857143</ele><time>2026-05-01T09:33:33.028Z</time></trkpt><trkpt lat="44.1510214" lon="9.9871457"><ele>275.0</ele><time>2026-05-01T09:33:40.026Z</time></trkpt><trkpt lat="44.1509522" lon="9.9871551"><ele>275.0</ele><time>2026-05-01T09:33:47.012Z</time></trkpt><trkpt lat="44.1508812" lon="9.9871322"><ele>275.0</ele><time>2026-05-01T09:33:55.021Z</time></trkpt><trkpt lat="44.1508211" lon="9.9870941"><ele>275.0</ele><time>2026-05-01T09:34:01.017Z</time></trkpt><trkpt lat="44.1507532" lon="9.9870802"><ele>275.0</ele><time>2026-05-01T09:34:07.966Z</time></trkpt><trkpt lat="44.1506875" lon="9.9870491"><ele>275.0</ele><time>2026-05-01T09:34:18.027Z</time></trkpt><trkpt lat="44.1506181" lon="9.9870228"><ele>275.0</ele><time>2026-05-01T09:34:24.03Z</time></trkpt><trkpt lat="44.1505543" lon="9.9869808"><ele>275.0</ele><time>2026-05-01T09:34:30.088Z</time></trkpt><trkpt lat="44.1504885" lon="9.9869822"><ele>275.0</ele><time>2026-05-01T09:34:36.005Z</time></trkpt><trkpt lat="44.1504236" lon="9.9869665"><ele>275.0</ele><time>2026-05-01T09:34:42.045Z</time></trkpt><trkpt lat="44.1503598" lon="9.9869445"><ele>275.0</ele><time>2026-05-01T09:34:48.027Z</time></trkpt><trkpt lat="44.1503115" lon="9.9868813"><ele>275.0</ele><time>2026-05-01T09:34:54.006Z</time></trkpt><trkpt lat="44.150273" lon="9.9868072"><ele>275.0</ele><time>2026-05-01T09:35:00.027Z</time></trkpt><trkpt lat="44.1502243" lon="9.9867429"><ele>275.0</ele><time>2026-05-01T09:35:06.038Z</time></trkpt><trkpt lat="44.1501804" lon="9.9866566"><ele>275.0</ele><time>2026-05-01T09:35:12.063Z</time></trkpt><trkpt lat="44.150143" lon="9.9865809"><ele>275.0</ele><time>2026-05-01T09:35:18.039Z</time></trkpt><trkpt lat="44.1501205" lon="9.986488"><ele>275.0</ele><time>2026-05-01T09:35:26.032Z</time></trkpt><trkpt lat="44.150093" lon="9.9863987"><ele>275.0</ele><time>2026-05-01T09:35:35.052Z</time></trkpt><trkpt lat="44.1500856" lon="9.986307"><ele>275.0</ele><time>2026-05-01T09:35:43.065Z</time></trkpt><trkpt lat="44.1500647" lon="9.9862236"><ele>275.0</ele><time>2026-05-01T09:35:53.033Z</time></trkpt><trkpt lat="44.150044" lon="9.9861325"><ele>275.0</ele><time>2026-05-01T09:36:02.052Z</time></trkpt><trkpt lat="44.1500294" lon="9.9860466"><ele>275.0</ele><time>2026-05-01T09:36:11.026Z</time></trkpt><trkpt lat="44.1500154" lon="9.9859537"><ele>275.0</ele><time>2026-05-01T09:36:21.01Z</time></trkpt><trkpt lat="44.1500142" lon="9.9858618"><ele>275.0</ele><time>2026-05-01T09:36:32.045Z</time></trkpt><trkpt lat="44.150051" lon="9.9857878"><ele>275.0</ele><time>2026-05-01T09:36:42.022Z</time></trkpt><trkpt lat="44.1500222" lon="9.9857088"><ele>275.0</ele><time>2026-05-01T09:36:49.019Z</time></trkpt><trkpt lat="44.1499915" lon="9.9856294"><ele>275.0</ele><time>2026-05-01T09:36:56.029Z</time></trkpt><trkpt lat="44.1500046" lon="9.9855415"><ele>275.0</ele><time>2026-05-01T09:37:13.025Z</time></trkpt><trkpt lat="44.1500356" lon="9.9854639"><ele>275.0</ele><time>2026-05-01T09:37:27.026Z</time></trkpt><trkpt lat="44.150077" lon="9.9853847"><ele>276.2857142857143</ele><time>2026-05-01T09:37:43.019Z</time></trkpt><trkpt lat="44.1501353" lon="9.9853364"><ele>277.57142857142856</ele><time>2026-05-01T09:37:52.04Z</time></trkpt><trkpt lat="44.1501864" lon="9.9852597"><ele>278.85714285714283</ele><time>2026-05-01T09:38:17.061Z</time></trkpt><trkpt lat="44.1502271" lon="9.9851776"><ele>280.1428571428571</ele><time>2026-05-01T09:38:23.049Z</time></trkpt><trkpt lat="44.1502819" lon="9.9851325"><ele>281.4285714285714</ele><time>2026-05-01T09:38:32.055Z</time></trkpt><trkpt lat="44.1503423" lon="9.9850854"><ele>282.7142857142857</ele><time>2026-05-01T09:38:43.034Z</time></trkpt><trkpt lat="44.1504009" lon="9.9850418"><ele>284.0</ele><time>2026-05-01T09:38:48.973Z</time></trkpt><trkpt lat="44.1504603" lon="9.9850039"><ele>284.0</ele><time>2026-05-01T09:38:54.032Z</time></trkpt><trkpt lat="44.1505227" lon="9.984959"><ele>284.0</ele><time>2026-05-01T09:39:00.03Z</time></trkpt><trkpt lat="44.1505834" lon="9.9849314"><ele>284.0</ele><time>2026-05-01T09:39:05.044Z</time></trkpt><trkpt lat="44.1506451" lon="9.9849091"><ele>284.0</ele><time>2026-05-01T09:39:17.024Z</time></trkpt><trkpt lat="44.1507141" lon="9.9848744"><ele>284.0</ele><time>2026-05-01T09:39:47.045Z</time></trkpt><trkpt lat="44.1507712" lon="9.9848173"><ele>284.0</ele><time>2026-05-01T09:39:52.045Z</time></trkpt><trkpt lat="44.1508213" lon="9.9847596"><ele>284.0</ele><time>2026-05-01T09:39:57.055Z</time></trkpt><trkpt lat="44.1508666" lon="9.98469"><ele>286.42857142857144</ele><time>2026-05-01T09:40:05.069Z</time></trkpt><trkpt lat="44.1509293" lon="9.9846437"><ele>288.85714285714283</ele><time>2026-05-01T09:40:12.063Z</time></trkpt><trkpt lat="44.1509859" lon="9.9845885"><ele>291.2857142857143</ele><time>2026-05-01T09:40:25.061Z</time></trkpt><trkpt lat="44.1510426" lon="9.9845339"><ele>293.7142857142857</ele><time>2026-05-01T09:40:35.028Z</time></trkpt><trkpt lat="44.1510887" lon="9.9844732"><ele>296.1428571428571</ele><time>2026-05-01T09:40:45.055Z</time></trkpt><trkpt lat="44.151144" lon="9.9844215"><ele>298.57142857142856</ele><time>2026-05-01T09:40:55.041Z</time></trkpt><trkpt lat="44.1512045" lon="9.9843769"><ele>301.0</ele><time>2026-05-01T09:41:11.049Z</time></trkpt><trkpt lat="44.1512642" lon="9.9843445"><ele>301.0</ele><time>2026-05-01T09:41:20.033Z</time></trkpt><trkpt lat="44.1513234" lon="9.9842852"><ele>301.0</ele><time>2026-05-01T09:41:38.067Z</time></trkpt><trkpt lat="44.1513881" lon="9.9842555"><ele>301.0</ele><time>2026-05-01T09:41:42.026Z</time></trkpt><trkpt lat="44.1514487" lon="9.9842198"><ele>301.0</ele><time>2026-05-01T09:41:45.066Z</time></trkpt><trkpt lat="44.1515217" lon="9.9841957"><ele>301.0</ele><time>2026-05-01T09:41:50.036Z</time></trkpt><trkpt lat="44.1515842" lon="9.9841782"><ele>301.0</ele><time>2026-05-01T09:41:55.029Z</time></trkpt><trkpt lat="44.1516499" lon="9.9841522"><ele>301.0</ele><time>2026-05-01T09:42:00.037Z</time></trkpt><trkpt lat="44.1517172" lon="9.9841338"><ele>303.42857142857144</ele><time>2026-05-01T09:42:05.047Z</time></trkpt><trkpt lat="44.1517878" lon="9.98412"><ele>305.8571428571429</ele><time>2026-05-01T09:42:17.055Z</time></trkpt><trkpt lat="44.1518518" lon="9.984112"><ele>308.2857142857143</ele><time>2026-05-01T09:42:23.082Z</time></trkpt><trkpt lat="44.1519146" lon="9.9840797"><ele>310.7142857142857</ele><time>2026-05-01T09:42:35.04Z</time></trkpt><trkpt lat="44.151983" lon="9.9840446"><ele>313.14285714285717</ele><time>2026-05-01T09:42:49.032Z</time></trkpt><trkpt lat="44.1520517" lon="9.9840309"><ele>315.57142857142856</ele><time>2026-05-01T09:42:55.062Z</time></trkpt><trkpt lat="44.1521242" lon="9.9840054"><ele>318.0</ele><time>2026-05-01T09:43:08.035Z</time></trkpt><trkpt lat="44.1521704" lon="9.9839387"><ele>318.0</ele><time>2026-05-01T09:43:13.034Z</time></trkpt><trkpt lat="44.1522231" lon="9.9838764"><ele>318.0</ele><time>2026-05-01T09:43:19.06Z</time></trkpt><trkpt lat="44.1522856" lon="9.9838517"><ele>318.0</ele><time>2026-05-01T09:43:26.032Z</time></trkpt><trkpt lat="44.1523467" lon="9.9838301"><ele>318.0</ele><time>2026-05-01T09:43:35.054Z</time></trkpt><trkpt lat="44.1524341" lon="9.9838674"><ele>318.0</ele><time>2026-05-01T09:44:04.05Z</time></trkpt><trkpt lat="44.1524692" lon="9.9839514"><ele>318.0</ele><time>2026-05-01T09:44:10.041Z</time></trkpt><trkpt lat="44.1524853" lon="9.984042"><ele>318.0</ele><time>2026-05-01T09:44:17.947Z</time></trkpt><trkpt lat="44.1524925" lon="9.9841436"><ele>321.1428571428571</ele><time>2026-05-01T09:44:25.028Z</time></trkpt><trkpt lat="44.1524911" lon="9.9842379"><ele>324.28571428571433</ele><time>2026-05-01T09:44:31.038Z</time></trkpt><trkpt lat="44.1525112" lon="9.9843444"><ele>327.42857142857144</ele><time>2026-05-01T09:44:49.963Z</time></trkpt><trkpt lat="44.1525191" lon="9.9844315"><ele>330.57142857142856</ele><time>2026-05-01T09:45:20.031Z</time></trkpt><trkpt lat="44.1525005" lon="9.9845245"><ele>333.71428571428567</ele><time>2026-05-01T09:45:25.068Z</time></trkpt><trkpt lat="44.1525018" lon="9.9846236"><ele>336.8571428571429</ele><time>2026-05-01T09:45:30.04Z</time></trkpt><trkpt lat="44.1525308" lon="9.9847071"><ele>340.0</ele><time>2026-05-01T09:45:35.049Z</time></trkpt><trkpt lat="44.1525502" lon="9.9848056"><ele>340.0</ele><time>2026-05-01T09:45:41.028Z</time></trkpt><trkpt lat="44.1525657" lon="9.9848958"><ele>340.0</ele><time>2026-05-01T09:45:46.032Z</time></trkpt><trkpt lat="44.1525784" lon="9.9849984"><ele>340.0</ele><time>2026-05-01T09:45:52.039Z</time></trkpt><trkpt lat="44.1525749" lon="9.9850915"><ele>340.0</ele><time>2026-05-01T09:46:19.034Z</time></trkpt><trkpt lat="44.1526084" lon="9.9851724"><ele>340.0</ele><time>2026-05-01T09:46:25.052Z</time></trkpt><trkpt lat="44.1526813" lon="9.9851728"><ele>340.0</ele><time>2026-05-01T09:46:40.02Z</time></trkpt><trkpt lat="44.1527423" lon="9.9851216"><ele>340.0</ele><time>2026-05-01T09:46:49.016Z</time></trkpt><trkpt lat="44.1528088" lon="9.9851243"><ele>340.14285714285717</ele><time>2026-05-01T09:46:56.02Z</time></trkpt><trkpt lat="44.1528523" lon="9.985188"><ele>340.2857142857143</ele><time>2026-05-01T09:47:05.016Z</time></trkpt><trkpt lat="44.1529133" lon="9.9852304"><ele>340.42857142857144</ele><time>2026-05-01T09:47:21.009Z</time></trkpt><trkpt lat="44.1529658" lon="9.9852835"><ele>340.57142857142856</ele><time>2026-05-01T09:47:31.028Z</time></trkpt><trkpt lat="44.1530056" lon="9.9853673"><ele>340.7142857142857</ele><time>2026-05-01T09:47:44.055Z</time></trkpt><trkpt lat="44.1530633" lon="9.985413"><ele>340.85714285714283</ele><time>2026-05-01T09:47:50.031Z</time></trkpt><trkpt lat="44.153076" lon="9.9855007"><ele>341.0</ele><time>2026-05-01T09:48:27.054Z</time></trkpt><trkpt lat="44.1530968" lon="9.9855913"><ele>341.0</ele><time>2026-05-01T09:48:34.054Z</time></trkpt><trkpt lat="44.1531476" lon="9.9856452"><ele>341.0</ele><time>2026-05-01T09:48:42.042Z</time></trkpt><trkpt lat="44.1532208" lon="9.9856535"><ele>341.0</ele><time>2026-05-01T09:49:02.047Z</time></trkpt><trkpt lat="44.1532818" lon="9.9856785"><ele>341.0</ele><time>2026-05-01T09:49:07.047Z</time></trkpt><trkpt lat="44.1533096" lon="9.9857598"><ele>341.0</ele><time>2026-05-01T09:49:25.044Z</time></trkpt><trkpt lat="44.153314" lon="9.9858526"><ele>341.0</ele><time>2026-05-01T09:49:30.048Z</time></trkpt><trkpt lat="44.153322" lon="9.9859519"><ele>341.0</ele><time>2026-05-01T09:49:38.056Z</time></trkpt><trkpt lat="44.1533814" lon="9.9859021"><ele>345.0</ele><time>2026-05-01T09:49:56.022Z</time></trkpt><trkpt lat="44.1534305" lon="9.9858369"><ele>349.0</ele><time>2026-05-01T09:50:03.015Z</time></trkpt><trkpt lat="44.1534778" lon="9.9857776"><ele>353.0</ele><time>2026-05-01T09:50:11.047Z</time></trkpt><trkpt lat="44.1535272" lon="9.9857127"><ele>357.0</ele><time>2026-05-01T09:50:18.052Z</time></trkpt><trkpt lat="44.1535852" lon="9.9856604"><ele>361.0</ele><time>2026-05-01T09:50:25.99Z</time></trkpt><trkpt lat="44.1536433" lon="9.9856204"><ele>365.0</ele><time>2026-05-01T09:50:35.052Z</time></trkpt><trkpt lat="44.1537147" lon="9.9856131"><ele>369.0</ele><time>2026-05-01T09:51:05.002Z</time></trkpt><trkpt lat="44.1537781" lon="9.9856088"><ele>369.0</ele><time>2026-05-01T09:51:11.037Z</time></trkpt><trkpt lat="44.1538392" lon="9.9855854"><ele>369.0</ele><time>2026-05-01T09:51:18.041Z</time></trkpt><trkpt lat="44.1538974" lon="9.9855374"><ele>369.0</ele><time>2026-05-01T09:51:24.038Z</time></trkpt><trkpt lat="44.1539569" lon="9.9854785"><ele>369.0</ele><time>2026-05-01T09:51:31.074Z</time></trkpt><trkpt lat="44.1540102" lon="9.9854318"><ele>369.0</ele><time>2026-05-01T09:51:38.06Z</time></trkpt><trkpt lat="44.1540793" lon="9.9854487"><ele>369.0</ele><time>2026-05-01T09:51:46.049Z</time></trkpt><trkpt lat="44.1541492" lon="9.9854752"><ele>369.0</ele><time>2026-05-01T09:51:52.047Z</time></trkpt><trkpt lat="44.1542188" lon="9.985502"><ele>371.2857142857143</ele><time>2026-05-01T09:51:59.046Z</time></trkpt><trkpt lat="44.1542815" lon="9.9855268"><ele>373.57142857142856</ele><time>2026-05-01T09:52:06.009Z</time></trkpt><trkpt lat="44.1543538" lon="9.9855417"><ele>375.8571428571429</ele><time>2026-05-01T09:52:12.034Z</time></trkpt><trkpt lat="44.1544179" lon="9.985548"><ele>378.1428571428571</ele><time>2026-05-01T09:52:18.004Z</time></trkpt><trkpt lat="44.1544796" lon="9.9855233"><ele>380.42857142857144</ele><time>2026-05-01T09:52:26.029Z</time></trkpt><trkpt lat="44.1545368" lon="9.9854807"><ele>382.7142857142857</ele><time>2026-05-01T09:52:32.032Z</time></trkpt><trkpt lat="44.1545982" lon="9.9854408"><ele>385.0</ele><time>2026-05-01T09:53:29.074Z</time></trkpt><trkpt lat="44.1545508" lon="9.9853653"><ele>385.0</ele><time>2026-05-01T09:53:35.985Z</time></trkpt><trkpt lat="44.1545239" lon="9.9852771"><ele>385.0</ele><time>2026-05-01T09:53:41.042Z</time></trkpt><trkpt lat="44.1545028" lon="9.9851876"><ele>385.0</ele><time>2026-05-01T09:53:47.038Z</time></trkpt><trkpt lat="44.1544901" lon="9.9850882"><ele>385.0</ele><time>2026-05-01T09:53:54.041Z</time></trkpt><trkpt lat="44.1544793" lon="9.9849958"><ele>385.0</ele><time>2026-05-01T09:54:01.049Z</time></trkpt><trkpt lat="44.1544438" lon="9.9849143"><ele>385.0</ele><time>2026-05-01T09:54:08.043Z</time></trkpt><trkpt lat="44.1544458" lon="9.984821"><ele>385.0</ele><time>2026-05-01T09:54:17.026Z</time></trkpt><trkpt lat="44.1545037" lon="9.9847729"><ele>386.7142857142857</ele><time>2026-05-01T09:54:23.032Z</time></trkpt><trkpt lat="44.1545641" lon="9.9847444"><ele>388.42857142857144</ele><time>2026-05-01T09:54:29.038Z</time></trkpt><trkpt lat="44.1546312" lon="9.984733"><ele>390.1428571428571</ele><time>2026-05-01T09:54:36.982Z</time></trkpt><trkpt lat="44.1547028" lon="9.9846837"><ele>391.8571428571429</ele><time>2026-05-01T09:54:43.073Z</time></trkpt><trkpt lat="44.1547527" lon="9.9846163"><ele>393.57142857142856</ele><time>2026-05-01T09:54:49.033Z</time></trkpt><trkpt lat="44.1548185" lon="9.984587"><ele>395.2857142857143</ele><time>2026-05-01T09:54:56.045Z</time></trkpt><trkpt lat="44.1548847" lon="9.98458"><ele>397.0</ele><time>2026-05-01T09:55:01.05Z</time></trkpt><trkpt lat="44.1549583" lon="9.9845878"><ele>397.2857142857143</ele><time>2026-05-01T09:55:07.04Z</time></trkpt><trkpt lat="44.1550318" lon="9.9845595"><ele>397.57142857142856</ele><time>2026-05-01T09:55:14.103Z</time></trkpt><trkpt lat="44.1550871" lon="9.9844896"><ele>397.8571428571429</ele><time>2026-05-01T09:55:20.986Z</time></trkpt><trkpt lat="44.1551375" lon="9.9844336"><ele>398.1428571428571</ele><time>2026-05-01T09:55:27.948Z</time></trkpt><trkpt lat="44.1551919" lon="9.9843613"><ele>398.42857142857144</ele><time>2026-05-01T09:55:34.039Z</time></trkpt><trkpt lat="44.1552414" lon="9.984289"><ele>398.7142857142857</ele><time>2026-05-01T09:55:40.046Z</time></trkpt><trkpt lat="44.1552854" lon="9.9842092"><ele>399.0</ele><time>2026-05-01T09:55:48.044Z</time></trkpt><trkpt lat="44.1553223" lon="9.9841248"><ele>401.14285714285717</ele><time>2026-05-01T09:55:55.057Z</time></trkpt><trkpt lat="44.1553482" lon="9.9840401"><ele>403.2857142857143</ele><time>2026-05-01T09:56:03.045Z</time></trkpt><trkpt lat="44.1553785" lon="9.9839596"><ele>405.42857142857144</ele><time>2026-05-01T09:56:16.07Z</time></trkpt><trkpt lat="44.1553898" lon="9.9838629"><ele>407.57142857142856</ele><time>2026-05-01T09:56:23.057Z</time></trkpt><trkpt lat="44.1554025" lon="9.9837629"><ele>409.7142857142857</ele><time>2026-05-01T09:56:31.035Z</time></trkpt><trkpt lat="44.1554089" lon="9.9836718"><ele>411.8571428571429</ele><time>2026-05-01T09:56:36.03Z</time></trkpt><trkpt lat="44.1554182" lon="9.9835828"><ele>414.0</ele><time>2026-05-01T09:56:41.035Z</time></trkpt><trkpt lat="44.1554387" lon="9.9834856"><ele>414.00000000000006</ele><time>2026-05-01T09:56:47.054Z</time></trkpt><trkpt lat="44.155449" lon="9.9833874"><ele>414.0</ele><time>2026-05-01T09:56:53.008Z</time></trkpt><trkpt lat="44.1554701" lon="9.9832586"><ele>414.0</ele><time>2026-05-01T09:59:47.037Z</time></trkpt><trkpt lat="44.1555026" lon="9.9831776"><ele>414.0</ele><time>2026-05-01T09:59:51.062Z</time></trkpt><trkpt lat="44.1555295" lon="9.9830964"><ele>414.0</ele><time>2026-05-01T09:59:56.046Z</time></trkpt><trkpt lat="44.1555731" lon="9.9830254"><ele>414.00000000000006</ele><time>2026-05-01T10:00:03.037Z</time></trkpt><trkpt lat="44.1556359" lon="9.9829768"><ele>414.0</ele><time>2026-05-01T10:00:10.046Z</time></trkpt><trkpt lat="44.1556813" lon="9.9829037"><ele>414.28571428571433</ele><time>2026-05-01T10:00:16.042Z</time></trkpt><trkpt lat="44.155726" lon="9.9828373"><ele>414.57142857142856</ele><time>2026-05-01T10:00:24.954Z</time></trkpt><trkpt lat="44.1557929" lon="9.9827918"><ele>414.8571428571429</ele><time>2026-05-01T10:00:36.039Z</time></trkpt><trkpt lat="44.1558374" lon="9.9827264"><ele>415.14285714285717</ele><time>2026-05-01T10:00:45.006Z</time></trkpt><trkpt lat="44.1558264" lon="9.9826303"><ele>415.42857142857144</ele><time>2026-05-01T10:00:56.046Z</time></trkpt><trkpt lat="44.1558048" lon="9.9825453"><ele>415.7142857142857</ele><time>2026-05-01T10:01:03.051Z</time></trkpt><trkpt lat="44.1557719" lon="9.9824619"><ele>416.0</ele><time>2026-05-01T10:01:10.033Z</time></trkpt><trkpt lat="44.1557377" lon="9.982386"><ele>416.57142857142856</ele><time>2026-05-01T10:01:19.049Z</time></trkpt><trkpt lat="44.1557316" lon="9.9822856"><ele>417.14285714285717</ele><time>2026-05-01T10:01:25.046Z</time></trkpt><trkpt lat="44.155722" lon="9.9821823"><ele>417.7142857142857</ele><time>2026-05-01T10:01:32.064Z</time></trkpt><trkpt lat="44.1557011" lon="9.9820954"><ele>418.2857142857143</ele><time>2026-05-01T10:01:39.058Z</time></trkpt><trkpt lat="44.1556632" lon="9.9820093"><ele>418.8571428571429</ele><time>2026-05-01T10:02:01.041Z</time></trkpt><trkpt lat="44.1556293" lon="9.9819325"><ele>419.42857142857144</ele><time>2026-05-01T10:02:06.05Z</time></trkpt><trkpt lat="44.1555993" lon="9.9818521"><ele>420.0</ele><time>2026-05-01T10:02:12.023Z</time></trkpt><trkpt lat="44.1555781" lon="9.9817572"><ele>419.14285714285717</ele><time>2026-05-01T10:04:11.987Z</time></trkpt><trkpt lat="44.1555656" lon="9.981671"><ele>418.2857142857143</ele><time>2026-05-01T10:04:18.034Z</time></trkpt><trkpt lat="44.1555722" lon="9.9815802"><ele>417.42857142857144</ele><time>2026-05-01T10:04:24.05Z</time></trkpt><trkpt lat="44.1555462" lon="9.9814923"><ele>416.57142857142856</ele><time>2026-05-01T10:04:55.035Z</time></trkpt><trkpt lat="44.155528" lon="9.9814045"><ele>415.7142857142857</ele><time>2026-05-01T10:05:03.051Z</time></trkpt><trkpt lat="44.1555011" lon="9.9813069"><ele>414.8571428571429</ele><time>2026-05-01T10:05:07.987Z</time></trkpt><trkpt lat="44.1554696" lon="9.9812252"><ele>414.0</ele><time>2026-05-01T10:05:11.928Z</time></trkpt><trkpt lat="44.1554397" lon="9.9811463"><ele>414.0</ele><time>2026-05-01T10:05:17.048Z</time></trkpt><trkpt lat="44.1553849" lon="9.9810689"><ele>414.0</ele><time>2026-05-01T10:05:39.044Z</time></trkpt><trkpt lat="44.1553851" lon="9.9809795"><ele>414.0</ele><time>2026-05-01T10:05:51.947Z</time></trkpt></trkseg></trk></gpx>